Time;durP1;ratioP1;P1;durP2;ratioP2;P2;SDS_P1;SDS_P2;PMS_P1;PMS_P2;Temp;Humidity;BMP_temperature;BMP_pressure;BME280_temperature;BME280_humidity;BME280_pressure;Samples;Min_cycle;Max_cycle;Signal;HPM_P1;HPM_P2
2021/05/02 00:02:22;;;;;;;22.97;13.80;;;;;;;3.81;100.00;100481.34;5025110;28;20069;-83
2021/05/02 00:04:49;;;;;;;18.57;11.90;;;;;;;3.83;100.00;100482.22;5014013;28;20461;-85
2021/05/02 00:07:15;;;;;;;21.27;12.53;;;;;;;3.89;100.00;100469.19;4998200;28;20038;-83
2021/05/02 00:09:41;;;;;;;21.47;13.23;;;;;;;3.92;100.00;100465.69;5012205;28;20052;-83
2021/05/02 00:12:07;;;;;;;18.17;12.73;;;;;;;3.89;100.00;100465.69;5014702;28;20112;-83
2021/05/02 00:14:34;;;;;;;22.37;12.47;;;;;;;3.86;100.00;100461.31;5017875;28;20044;-84
2021/05/02 00:17:00;;;;;;;18.00;11.73;;;;;;;3.85;100.00;100458.69;5010223;28;20264;-84
2021/05/02 00:19:26;;;;;;;20.33;12.20;;;;;;;3.79;100.00;100466.53;5015312;28;20064;-83
2021/05/02 00:21:53;;;;;;;18.10;10.73;;;;;;;3.76;100.00;100474.34;5034325;28;20048;-83
2021/05/02 00:24:21;;;;;;;17.30;11.37;;;;;;;3.75;100.00;100473.47;5035018;28;20068;-84
2021/05/02 00:26:50;;;;;;;19.53;11.00;;;;;;;3.74;100.00;100473.47;5023892;28;20433;-84
2021/05/02 00:29:17;;;;;;;19.47;11.93;;;;;;;3.79;100.00;100461.31;5013716;28;20048;-84
2021/05/02 00:31:45;;;;;;;20.33;12.13;;;;;;;3.78;100.00;100464.78;5012491;28;20107;-83
2021/05/02 00:34:12;;;;;;;20.23;12.97;;;;;;;3.81;100.00;100463.06;5025857;28;20559;-84
2021/05/02 00:36:38;;;;;;;21.63;13.60;;;;;;;3.84;100.00;100463.06;5009624;28;20045;-83
2021/05/02 00:39:06;;;;;;;25.00;13.87;;;;;;;3.91;100.00;100469.19;5035505;28;20040;-83
2021/05/02 00:41:35;;;;;;;22.07;13.47;;;;;;;3.97;100.00;100465.72;5029631;28;20072;-83
2021/05/02 00:44:05;;;;;;;21.33;12.90;;;;;;;3.91;100.00;100459.59;5015285;28;20045;-83
2021/05/02 00:46:37;;;;;;;21.93;13.23;;;;;;;3.89;100.00;100450.03;5030590;28;20096;-83
2021/05/02 00:49:29;;;;;;;22.70;13.97;;;;;;;3.83;100.00;100452.59;5032982;28;20068;-83
2021/05/02 00:51:58;;;;;;;21.50;13.87;;;;;;;3.83;100.00;100453.47;5030718;28;20394;-83
2021/05/02 00:54:46;;;;;;;23.07;14.03;;;;;;;3.81;100.00;100456.97;5015105;28;20033;-83
2021/05/02 00:57:24;;;;;;;22.63;13.10;;;;;;;3.79;100.00;100450.88;5045443;28;20038;-83
2021/05/02 00:59:56;;;;;;;22.20;14.23;;;;;;;3.80;100.00;100445.63;5028513;28;20056;-83
2021/05/02 01:02:27;;;;;;;24.77;13.20;;;;;;;3.84;100.00;100451.72;5030362;28;20049;-83
2021/05/02 01:04:55;;;;;;;24.17;13.67;;;;;;;3.83;100.00;100450.88;5048410;28;20047;-84
2021/05/02 01:07:22;;;;;;;21.63;14.30;;;;;;;3.88;100.00;100438.69;5033269;28;20040;-83
2021/05/02 01:09:49;;;;;;;20.50;13.50;;;;;;;3.90;100.00;100434.34;5029751;28;20111;-83
2021/05/02 01:12:19;;;;;;;25.83;14.87;;;;;;;3.87;100.00;100431.72;5010616;28;20045;-85
2021/05/02 01:14:47;;;;;;;24.90;15.03;;;;;;;3.84;100.00;100434.31;5063357;28;20033;-84
2021/05/02 01:17:15;;;;;;;20.03;12.83;;;;;;;3.86;100.00;100442.16;5026639;28;20037;-83
2021/05/02 01:19:42;;;;;;;22.67;13.30;;;;;;;3.87;100.00;100434.34;5016451;28;20048;-83
2021/05/02 01:22:12;;;;;;;21.07;12.43;;;;;;;3.87;100.00;100441.31;5033315;28;20049;-83
2021/05/02 01:24:39;;;;;;;20.13;12.43;;;;;;;3.81;100.00;100442.16;5022117;28;20049;-83
2021/05/02 01:27:05;;;;;;;19.50;11.67;;;;;;;3.83;100.00;100434.31;5027414;28;20067;-83
2021/05/02 01:29:34;;;;;;;23.47;13.90;;;;;;;3.82;100.00;100436.06;5016965;28;20037;-83
2021/05/02 01:32:01;;;;;;;18.77;12.20;;;;;;;3.81;100.00;100426.47;5100343;23;20057;-82
2021/05/02 01:34:27;;;;;;;19.47;11.97;;;;;;;3.80;100.00;100429.09;5000121;28;20045;-82
2021/05/02 01:36:53;;;;;;;17.47;11.13;;;;;;;3.78;100.00;100426.44;4995803;28;20048;-82
2021/05/02 01:39:20;;;;;;;17.30;10.90;;;;;;;3.80;100.00;100429.97;4976513;28;20045;-82
2021/05/02 01:41:46;;;;;;;17.30;11.27;;;;;;;3.81;100.00;100434.31;4976853;28;20121;-83
2021/05/02 01:44:13;;;;;;;18.17;9.90;;;;;;;3.78;100.00;100438.63;4975960;28;20065;-82
2021/05/02 01:46:41;;;;;;;16.57;10.23;;;;;;;3.83;100.00;100429.97;4992034;28;20061;-83
2021/05/02 01:49:10;;;;;;;20.03;12.60;;;;;;;3.86;100.00;100422.13;4992921;28;20056;-84
2021/05/02 01:51:37;;;;;;;23.87;13.97;;;;;;;3.85;100.00;100411.66;4993137;28;20042;-83
2021/05/02 01:54:04;;;;;;;19.40;12.17;;;;;;;3.87;100.00;100416.06;4992525;28;20415;-86
2021/05/02 01:56:31;;;;;;;22.90;13.53;;;;;;;3.86;100.00;100423.84;4973290;28;20129;-83
2021/05/02 01:59:00;;;;;;;20.50;13.17;;;;;;;3.88;100.00;100425.63;4973882;28;20054;-84
2021/05/02 02:01:27;;;;;;;19.73;12.10;;;;;;;3.81;100.00;100421.25;4976540;28;20046;-82
2021/05/02 02:03:54;;;;;;;20.23;13.07;;;;;;;3.81;100.00;100426.47;5006549;28;20349;-83
2021/05/02 02:06:20;;;;;;;23.43;13.80;;;;;;;3.77;100.00;100429.06;5005762;28;20050;-83
2021/05/02 02:08:46;;;;;;;23.27;12.50;;;;;;;3.76;100.00;100419.47;4971542;28;20403;-83
2021/05/02 02:11:12;;;;;;;22.50;12.13;;;;;;;3.77;100.00;100423.84;4973195;28;20053;-83
2021/05/02 02:13:38;;;;;;;18.87;11.43;;;;;;;3.76;100.00;100428.19;4971077;28;20045;-83
2021/05/02 02:16:06;;;;;;;20.07;12.53;;;;;;;3.75;100.00;100436.03;4976106;28;20041;-83
2021/05/02 02:18:32;;;;;;;20.47;12.50;;;;;;;3.76;100.00;100433.41;4988760;28;20123;-83
2021/05/02 02:21:00;;;;;;;22.73;13.33;;;;;;;3.79;100.00;100437.81;4992530;28;20041;-84
2021/05/02 02:23:31;;;;;;;19.23;12.30;;;;;;;3.82;100.00;100438.66;4973829;28;20038;-85
2021/05/02 02:26:15;;;;;;;21.27;12.97;;;;;;;3.84;100.00;100431.69;4975355;28;20046;-83
2021/05/02 02:28:42;;;;;;;;;;;;;;;3.82;100.00;100423.00;5026009;28;20450;-83
2021/05/02 02:31:11;;;;;;;19.73;11.77;;;;;;;3.90;100.00;100423.88;4992178;28;19976;-83
2021/05/02 02:33:39;;;;;;;23.70;13.63;;;;;;;3.87;100.00;100415.19;4974698;28;20124;-83
2021/05/02 02:36:06;;;;;;;25.47;14.43;;;;;;;3.79;100.00;100417.78;4990769;28;20038;-83
2021/05/02 02:38:34;;;;;;;27.73;15.93;;;;;;;3.93;100.00;100413.44;4976593;28;20061;-83
2021/05/02 02:41:00;;;;;;;28.10;15.27;;;;;;;3.91;100.00;100407.34;4972002;28;20046;-84
2021/05/02 02:43:30;;;;;;;22.97;14.17;;;;;;;3.90;100.00;100407.34;4987108;28;20034;-83
2021/05/02 02:46:05;;;;;;;24.23;14.60;;;;;;;3.89;100.00;100400.38;4989826;28;20042;-84
2021/05/02 02:48:35;;;;;;;24.07;14.53;;;;;;;3.91;100.00;100403.84;4990748;28;20045;-83
2021/05/02 02:51:03;;;;;;;25.47;14.87;;;;;;;3.93;100.00;100399.50;5011923;28;20053;-83
2021/05/02 02:53:32;;;;;;;26.87;16.20;;;;;;;3.91;100.00;100396.00;4980336;28;20057;-84
2021/05/02 02:56:07;;;;;;;25.47;15.83;;;;;;;3.87;100.00;100402.97;4979005;28;20549;-83
2021/05/02 02:58:35;;;;;;;23.87;14.77;;;;;;;3.87;100.00;100395.16;4995637;28;20046;-83
2021/05/02 03:01:04;;;;;;;25.80;15.50;;;;;;;3.98;100.00;100391.69;4975663;28;20046;-83
2021/05/02 03:03:31;;;;;;;26.10;14.77;;;;;;;3.89;100.00;100388.16;4992561;28;20046;-82
2021/05/02 03:05:59;;;;;;;24.77;14.50;;;;;;;3.88;100.00;100383.81;4991044;28;20057;-84
2021/05/02 03:08:29;;;;;;;23.13;13.70;;;;;;;3.81;100.00;100392.50;4995397;28;20042;-83
2021/05/02 03:10:56;;;;;;;25.53;14.60;;;;;;;3.78;100.00;100391.59;4995504;28;20515;-84
2021/05/02 03:13:22;;;;;;;24.87;15.20;;;;;;;3.79;100.00;100394.25;5011631;28;20077;-83
2021/05/02 03:15:49;;;;;;;28.83;16.10;;;;;;;3.83;100.00;100390.75;4980799;28;20038;-82
2021/05/02 03:18:28;;;;;;;23.77;14.73;;;;;;;3.82;100.00;100391.63;5006732;28;20044;-82
2021/05/02 03:20:58;;;;;;;29.63;17.67;;;;;;;3.85;100.00;100389.00;4991636;28;20133;-83
2021/05/02 03:23:37;;;;;;;25.87;14.83;;;;;;;3.89;100.00;100396.00;4967104;28;20038;-84
2021/05/02 03:26:06;;;;;;;23.60;14.20;;;;;;;3.85;100.00;100390.75;4995828;28;20046;-82
2021/05/02 03:28:36;;;;;;;26.33;16.30;;;;;;;3.84;100.00;100395.13;4992277;28;20115;-85
2021/05/02 03:31:06;;;;;;;27.23;15.67;;;;;;;3.83;100.00;100401.22;4994520;28;20131;-82
2021/05/02 03:33:35;;;;;;;25.60;16.67;;;;;;;3.82;100.00;100399.47;4969481;28;20132;-83
2021/05/02 03:36:06;;;;;;;25.27;15.57;;;;;;;3.85;100.00;100391.63;4993821;28;20042;-82
2021/05/02 03:38:48;;;;;;;24.57;15.57;;;;;;;3.78;100.00;100402.06;4979332;28;20061;-83
2021/05/02 03:41:16;;;;;;;27.27;16.83;;;;;;;3.80;100.00;100406.44;4985106;28;20046;-82
2021/05/02 03:43:43;;;;;;;27.00;15.83;;;;;;;3.79;100.00;100401.22;4975308;28;20112;-82
2021/05/02 03:46:23;;;;;;;28.00;16.33;;;;;;;3.81;100.00;100405.56;5001360;28;20057;-83
2021/05/02 03:49:04;;;;;;;26.23;17.40;;;;;;;3.81;100.00;100407.31;4976120;28;20053;-83
2021/05/02 03:51:33;;;;;;;25.77;14.53;;;;;;;3.78;100.00;100407.28;5011384;28;20049;-82
2021/05/02 03:53:59;;;;;;;25.80;15.57;;;;;;;3.83;100.00;100411.66;4994716;28;20102;-85
2021/05/02 03:56:38;;;;;;;25.17;15.40;;;;;;;3.86;100.00;100413.41;4979116;28;20042;-83
2021/05/02 03:59:06;;;;;;;23.50;14.00;;;;;;;3.80;100.00;100419.50;4994442;28;20249;-83
2021/05/02 04:01:32;;;;;;;29.10;17.47;;;;;;;3.91;100.00;100415.19;5009734;28;20056;-83
2021/05/02 04:03:59;;;;;;;26.97;16.07;;;;;;;3.95;100.00;100409.09;4994798;28;20519;-83
2021/05/02 04:06:27;;;;;;;28.57;16.63;;;;;;;3.90;100.00;100405.59;4977291;28;20551;-83
2021/05/02 04:08:53;;;;;;;23.77;15.47;;;;;;;3.91;100.00;100411.69;4980067;28;20042;-83
2021/05/02 04:11:20;;;;;;;22.77;14.40;;;;;;;3.95;100.00;100414.34;4965819;28;20053;-84
2021/05/02 04:13:46;;;;;;;27.13;15.30;;;;;;;3.95;100.00;100414.34;5010355;28;20034;-83
2021/05/02 04:16:13;;;;;;;25.17;15.93;;;;;;;3.97;100.00;100416.06;4991631;28;20042;-83
2021/05/02 04:18:40;;;;;;;27.40;14.93;;;;;;;3.95;100.00;100416.03;4992960;28;20073;-84
2021/05/02 04:21:06;;;;;;;23.60;16.10;;;;;;;4.07;100.00;100421.31;4994379;28;20096;-83
2021/05/02 04:23:33;;;;;;;25.77;14.77;;;;;;;4.04;100.00;100425.69;4975204;28;20044;-83
2021/05/02 04:26:00;;;;;;;24.10;15.60;;;;;;;4.11;100.00;100419.56;4976726;28;20411;-83
2021/05/02 04:28:26;;;;;;;25.50;16.60;;;;;;;4.16;100.00;100417.84;5007987;28;20042;-83
2021/05/02 04:30:52;;;;;;;25.23;15.73;;;;;;;4.18;100.00;100406.50;4993911;28;20400;-83
2021/05/02 04:33:19;;;;;;;23.53;15.37;;;;;;;4.14;100.00;100420.47;4978506;28;20042;-82
2021/05/02 04:35:45;;;;;;;27.43;16.40;;;;;;;4.19;100.00;100423.06;4977752;28;20052;-82
2021/05/02 04:38:11;;;;;;;29.17;17.43;;;;;;;4.21;100.00;100427.44;4991612;28;20046;-82
2021/05/02 04:40:37;;;;;;;29.10;17.37;;;;;;;4.32;100.00;100417.00;4977440;28;20523;-83
2021/05/02 04:43:06;;;;;;;29.67;17.30;;;;;;;4.31;100.00;100417.00;5025625;23;20057;-84
2021/05/02 04:45:32;;;;;;;30.20;17.73;;;;;;;4.35;100.00;100414.38;4978031;28;20549;-83
2021/05/02 04:47:58;;;;;;;31.83;17.57;;;;;;;4.46;100.00;100406.56;4997246;28;20066;-82
2021/05/02 04:50:25;;;;;;;33.97;19.63;;;;;;;4.41;100.00;100403.94;4971548;28;20488;-84
2021/05/02 04:52:51;;;;;;;31.90;19.27;;;;;;;4.50;100.00;100408.28;4987043;28;20042;-83
2021/05/02 04:55:17;;;;;;;33.30;20.30;;;;;;;4.58;100.00;100413.53;4976799;28;20101;-82
2021/05/02 04:57:43;;;;;;;32.23;19.67;;;;;;;4.60;100.00;100412.63;4989654;28;20061;-83
2021/05/02 05:00:10;;;;;;;34.53;19.63;;;;;;;4.61;100.00;100401.28;4986851;28;20539;-84
2021/05/02 05:02:36;;;;;;;27.90;18.27;;;;;;;4.63;100.00;100399.56;4974023;28;20694;-84
2021/05/02 05:05:02;;;;;;;33.97;19.37;;;;;;;4.65;100.00;100397.81;4964374;28;20523;-83
2021/05/02 05:07:34;;;;;;;31.77;18.20;;;;;;;4.64;100.00;100406.53;4964573;28;20039;-83
2021/05/02 05:10:03;;;;;;;31.60;20.00;;;;;;;4.72;100.00;100406.53;4984755;28;20042;-83
2021/05/02 05:12:29;;;;;;;32.23;19.50;;;;;;;4.81;100.00;100398.69;5006720;28;20038;-83
2021/05/02 05:14:55;;;;;;;33.37;19.87;;;;;;;4.79;100.00;100400.41;5006335;28;20042;-84
2021/05/02 05:17:22;;;;;;;34.90;20.37;;;;;;;4.87;100.00;100390.78;4976023;28;20034;-83
2021/05/02 05:19:49;;;;;;;37.50;21.77;;;;;;;4.91;100.00;100397.78;4958812;28;20042;-83
2021/05/02 05:22:15;;;;;;;32.20;19.37;;;;;;;4.83;100.00;100396.06;4959774;28;20042;-85
2021/05/02 05:24:41;;;;;;;34.53;19.63;;;;;;;4.91;100.00;100387.31;4983247;28;20042;-83
2021/05/02 05:27:07;;;;;;;31.53;18.50;;;;;;;4.91;100.00;100389.94;4970069;28;20086;-83
2021/05/02 05:29:34;;;;;;;32.73;19.73;;;;;;;5.00;100.00;100389.91;4990109;28;20443;-83
2021/05/02 05:32:01;;;;;;;34.87;20.90;;;;;;;5.08;100.00;100390.78;4975458;28;20049;-85
2021/05/02 05:34:27;;;;;;;32.20;19.97;;;;;;;5.09;100.00;100386.41;4975411;28;20092;-82
2021/05/02 05:36:53;;;;;;;32.23;21.00;;;;;;;5.12;100.00;100383.75;4965730;28;20074;-83
2021/05/02 05:39:19;;;;;;;34.97;21.50;;;;;;;5.18;100.00;100381.13;4976159;28;20066;-82
2021/05/02 05:41:46;;;;;;;34.87;22.47;;;;;;;5.20;100.00;100388.97;4980386;28;20411;-82
2021/05/02 05:44:12;;;;;;;40.10;23.37;;;;;;;5.24;100.00;100381.13;4975323;28;20042;-82
2021/05/02 05:46:38;;;;;;;39.13;22.27;;;;;;;5.34;100.00;100392.44;4991906;28;20499;-84
2021/05/02 05:49:04;;;;;;;38.37;23.43;;;;;;;5.39;100.00;100392.44;4960462;28;20042;-83
2021/05/02 05:51:31;;;;;;;37.47;22.13;;;;;;;5.46;100.00;100392.38;4977355;28;20054;-82
2021/05/02 05:53:57;;;;;;;33.80;22.27;;;;;;;5.49;100.00;100386.28;4993638;28;20042;-82
2021/05/02 05:56:24;;;;;;;37.50;22.53;;;;;;;5.54;100.00;100389.72;4951468;28;20043;-81
2021/05/02 05:58:50;;;;;;;38.47;23.33;;;;;;;5.55;100.00;100387.13;4963752;28;20050;-82
2021/05/02 06:01:17;;;;;;;38.03;25.10;;;;;;;5.54;100.00;100393.22;4976843;28;20081;-83
2021/05/02 06:03:43;;;;;;;37.37;23.60;;;;;;;5.64;100.00;100394.94;4956599;28;20455;-82
2021/05/02 06:06:09;;;;;;;38.67;22.60;;;;;;;5.68;100.00;100389.69;4989647;28;20050;-81
2021/05/02 06:08:35;;;;;;;36.40;22.87;;;;;;;5.71;100.00;100395.75;4971920;28;20050;-81
2021/05/02 06:11:02;;;;;;;36.17;22.33;;;;;;;5.65;100.00;100395.81;4986194;28;20042;-82
2021/05/02 06:13:28;;;;;;;33.90;23.00;;;;;;;5.78;100.00;100397.47;4973447;28;20426;-82
2021/05/02 06:15:55;;;;;;;31.90;21.60;;;;;;;5.76;100.00;100404.47;4986193;28;20050;-81
2021/05/02 06:18:21;;;;;;;31.97;22.03;;;;;;;5.81;100.00;100399.22;4973748;28;20053;-81
2021/05/02 06:20:47;;;;;;;33.67;21.93;;;;;;;5.97;100.00;100400.94;4975471;28;20554;-82
2021/05/02 06:23:14;;;;;;;33.00;21.40;;;;;;;5.95;100.00;100404.41;4976690;28;20042;-82
2021/05/02 06:25:40;;;;;;;34.90;22.07;;;;;;;5.93;100.00;100400.06;4989225;28;20050;-82
2021/05/02 06:28:07;;;;;;;34.50;20.73;;;;;;;5.99;100.00;100408.78;4994232;28;20042;-81
2021/05/02 06:30:33;;;;;;;33.47;21.33;;;;;;;6.01;100.00;100410.50;4978942;28;20066;-82
2021/05/02 06:33:00;;;;;;;29.73;19.70;;;;;;;6.02;100.00;100409.63;4980189;28;20057;-81
2021/05/02 06:35:27;;;;;;;29.37;19.70;;;;;;;6.01;100.00;100412.25;4977857;28;20049;-82
2021/05/02 06:37:54;;;;;;;28.37;19.83;;;;;;;6.01;100.00;100412.25;4965970;28;20065;-83
2021/05/02 06:40:20;;;;;;;31.70;20.63;;;;;;;6.07;100.00;100420.09;4980385;28;20105;-83
2021/05/02 06:42:47;;;;;;;33.40;22.57;;;;;;;6.08;100.00;100412.22;4992213;28;20046;-82
2021/05/02 06:45:14;;;;;;;33.23;21.33;;;;;;;6.07;100.00;100420.09;4958561;28;20096;-81
2021/05/02 06:47:40;;;;;;;32.17;20.90;;;;;;;6.06;100.00;100424.47;4982078;28;20034;-82
2021/05/02 06:50:07;;;;;;;34.67;21.10;;;;;;;6.05;100.00;100422.69;4979711;28;20129;-82
2021/05/02 06:52:33;;;;;;;33.20;20.90;;;;;;;6.14;100.00;100420.06;4968170;28;20047;-83
2021/05/02 06:55:00;;;;;;;28.67;19.53;;;;;;;6.24;100.00;100423.47;4978954;28;20088;-83
2021/05/02 06:57:26;;;;;;;30.00;19.67;;;;;;;6.24;100.00;100430.47;4976687;28;20065;-83
2021/05/02 06:59:52;;;;;;;31.83;20.83;;;;;;;6.32;100.00;100431.31;4987406;28;20146;-81
2021/05/02 07:02:19;;;;;;;30.63;20.97;;;;;;;6.34;100.00;100437.41;4977475;28;20042;-83
2021/05/02 07:04:45;;;;;;;28.83;18.83;;;;;;;6.41;100.00;100439.09;4978041;28;20078;-81
2021/05/02 07:07:11;;;;;;;30.00;18.67;;;;;;;6.44;100.00;100437.31;4978009;28;20038;-81
2021/05/02 07:09:39;;;;;;;31.10;19.40;;;;;;;6.42;100.00;100441.72;5009718;28;20038;-82
2021/05/02 07:12:05;;;;;;;26.03;17.50;;;;;;;6.46;100.00;100445.19;4978036;28;20050;-82
2021/05/02 07:14:31;;;;;;;31.40;20.03;;;;;;;6.51;100.00;100448.66;4984544;28;20038;-80
2021/05/02 07:16:57;;;;;;;27.97;18.70;;;;;;;6.56;100.00;100446.88;4978739;28;20145;-82
2021/05/02 07:19:24;;;;;;;30.67;19.13;;;;;;;6.52;100.00;100439.03;4994440;28;20060;-81
2021/05/02 07:21:58;;;;;;;23.88;16.50;;;;;;;6.57;100.00;100451.25;4980242;28;20053;-81
2021/05/02 07:24:24;;;;;;;25.15;16.58;;;;;;;6.62;100.00;100451.19;4962422;28;20043;-82
2021/05/02 07:26:51;;;;;;;24.77;17.87;;;;;;;6.64;100.00;100449.41;4991273;28;20500;-81
2021/05/02 07:29:17;;;;;;;26.80;17.57;;;;;;;6.73;100.00;100447.63;4961536;28;20043;-81
2021/05/02 07:31:43;;;;;;;26.50;17.30;;;;;;;6.74;100.00;100436.22;4977492;28;20046;-81
2021/05/02 07:34:10;;;;;;;24.93;16.30;;;;;;;6.79;100.00;100438.78;4992700;28;20116;-82
2021/05/02 07:36:36;;;;;;;28.03;17.03;;;;;;;6.83;100.00;100448.41;4987818;28;20042;-83
2021/05/02 07:39:05;;;;;;;24.13;17.20;;;;;;;6.90;100.00;100446.59;4976545;28;20133;-83
2021/05/02 07:41:31;;;;;;;23.17;16.30;;;;;;;6.95;100.00;100439.53;4993070;28;20053;-82
2021/05/02 07:43:58;;;;;;;22.75;16.10;;;;;;;6.98;100.00;100448.28;4974437;28;20047;-83
2021/05/02 07:46:24;;;;;;;24.52;16.77;;;;;;;7.07;100.00;100449.94;4991233;28;20039;-82
2021/05/02 07:48:51;;;;;;;27.42;17.50;;;;;;;7.13;100.00;100438.47;4992228;28;20061;-81
2021/05/02 07:51:17;;;;;;;24.23;17.95;;;;;;;7.24;100.00;100450.63;4978038;28;20049;-83
2021/05/02 07:53:44;;;;;;;27.90;19.13;;;;;;;7.32;100.00;100450.56;4993493;28;20084;-81
2021/05/02 07:56:10;;;;;;;26.83;18.50;;;;;;;7.22;100.00;100456.78;4968948;28;20081;-82
2021/05/02 07:58:36;;;;;;;24.00;16.90;;;;;;;7.27;100.00;100450.59;4961175;28;20038;-83
2021/05/02 08:01:02;;;;;;;24.77;17.10;;;;;;;7.32;100.00;100453.19;4947580;28;20054;-82
2021/05/02 08:03:29;;;;;;;24.13;16.58;;;;;;;7.38;100.00;100453.09;4991494;28;20514;-82
2021/05/02 08:05:57;;;;;;;26.40;17.65;;;;;;;7.45;100.00;100457.41;4963645;28;20085;-81
2021/05/02 08:08:24;;;;;;;29.83;18.92;;;;;;;7.40;100.00;100453.97;4976191;28;20053;-82
2021/05/02 08:10:50;;;;;;;24.98;17.17;;;;;;;7.43;100.00;100453.94;4975379;28;20257;-81
2021/05/02 08:13:18;;;;;;;20.77;15.65;;;;;;;7.47;100.00;100460.00;4973760;28;20557;-80
2021/05/02 08:15:45;;;;;;;24.85;17.17;;;;;;;7.49;100.00;100455.63;4975143;28;20113;-83
2021/05/02 08:18:12;;;;;;;23.48;16.98;;;;;;;7.50;100.00;100463.50;4971871;28;20467;-81
2021/05/02 08:20:39;;;;;;;28.48;18.17;;;;;;;7.41;100.00;100465.38;4983084;28;20046;-83
2021/05/02 08:23:05;;;;;;;21.80;15.73;;;;;;;7.47;100.00;100463.50;4992568;28;20170;-82
2021/05/02 08:25:31;;;;;;;21.98;14.60;;;;;;;7.53;100.00;100460.81;4976731;28;20089;-82
2021/05/02 08:27:58;;;;;;;27.45;18.02;;;;;;;7.52;100.00;100466.09;4955504;28;20070;-83
2021/05/02 08:30:24;;;;;;;18.88;13.93;;;;;;;7.62;100.00;100459.84;4992548;28;20108;-83
2021/05/02 08:32:51;;;;;;;25.73;17.23;;;;;;;7.71;100.00;100464.13;4958291;28;20074;-82
2021/05/02 08:35:17;;;;;;;22.60;17.13;;;;;;;7.74;100.00;100464.97;4976440;28;20057;-81
2021/05/02 08:37:43;;;;;;;22.45;16.50;;;;;;;7.88;100.00;100468.28;4977238;28;20057;-81
2021/05/02 08:40:11;;;;;;;19.42;15.00;;;;;;;7.86;100.00;100466.56;4977436;28;20046;-81
2021/05/02 08:42:38;;;;;;;23.58;16.48;;;;;;;7.95;100.00;100473.47;5006900;28;20042;-82
2021/05/02 08:45:05;;;;;;;20.65;15.18;;;;;;;8.02;100.00;100473.38;4974287;28;20499;-84
2021/05/02 08:47:35;;;;;;;21.27;15.93;;;;;;;8.05;100.00;100468.06;4988679;28;20495;-81
2021/05/02 08:50:04;;;;;;;20.23;14.48;;;;;;;8.09;100.00;100468.91;4978682;28;20142;-81
2021/05/02 08:52:31;;;;;;;23.58;15.30;;;;;;;8.05;100.00;100470.69;4976801;28;20510;-83
2021/05/02 08:54:57;;;;;;;23.52;16.00;;;;;;;8.25;100.00;100466.94;4990259;28;20057;-82
2021/05/02 08:57:23;;;;;;;24.10;15.85;;;;;;;8.22;100.00;100469.59;4961536;28;20042;-83
2021/05/02 08:59:50;;;;;;;25.83;16.00;;;;;;;8.31;100.00;100469.47;5006789;28;20579;-83
2021/05/02 09:02:25;;;;;;;20.70;14.45;;;;;;;8.44;100.00;100466.69;4960302;28;20047;-83
2021/05/02 09:05:03;;;;;;;21.23;14.63;;;;;;;8.55;100.00;100466.53;5006077;28;20049;-83
2021/05/02 09:07:42;;;;;;;21.83;15.02;;;;;;;8.53;97.34;100456.91;4955237;28;20035;-81
2021/05/02 09:10:11;;;;;;;21.33;15.55;;;;;;;8.76;95.71;100454.78;4990375;28;20137;-82
2021/05/02 09:12:39;;;;;;;18.73;13.70;;;;;;;8.90;97.04;100463.31;5005964;28;20038;-83
2021/05/02 09:15:22;;;;;;;18.65;12.75;;;;;;;8.97;96.87;100451.78;4992015;28;20112;-83
2021/05/02 09:17:58;;;;;;;22.35;14.65;;;;;;;9.30;94.93;100452.06;4975858;28;20101;-81
2021/05/02 09:20:56;;;;;;;18.30;13.07;;;;;;;9.37;93.08;100450.19;4962990;28;20050;-82
2021/05/02 09:23:23;;;;;;;20.27;14.50;;;;;;;9.66;94.15;100449.63;4916629;28;20046;-82
2021/05/02 09:25:53;;;;;;;20.50;14.45;;;;;;;9.99;95.08;100448.91;4976390;28;20070;-82
2021/05/02 09:28:42;;;;;;;18.00;13.45;;;;;;;10.06;88.99;100441.75;4994036;28;20030;-82
2021/05/02 09:31:10;;;;;;;18.77;14.70;;;;;;;10.08;86.19;100446.09;4992963;28;20492;-83
2021/05/02 09:33:37;;;;;;;18.15;14.07;;;;;;;9.81;86.13;100446.69;4991012;28;20495;-81
2021/05/02 09:36:14;;;;;;;21.33;15.25;;;;;;;9.97;83.33;100453.38;4989460;28;20046;-82
2021/05/02 09:38:41;;;;;;;19.67;14.63;;;;;;;9.88;84.48;100440.38;4974461;28;20054;-82
2021/05/02 09:41:08;;;;;;;20.77;14.70;;;;;;;10.22;87.45;100437.00;4986547;28;20043;-82
2021/05/02 09:43:37;;;;;;;19.77;15.70;;;;;;;10.43;85.15;100447.97;4960729;28;20038;-82
2021/05/02 09:46:06;;;;;;;19.92;14.88;;;;;;;10.51;82.28;100446.91;4985620;28;20054;-81
2021/05/02 09:48:34;;;;;;;16.70;12.40;;;;;;;10.48;82.59;100444.34;4963512;28;20053;-81
2021/05/02 09:51:13;;;;;;;19.67;14.27;;;;;;;10.35;81.76;100446.44;4973225;28;20038;-83
2021/05/02 09:53:40;;;;;;;17.48;13.23;;;;;;;10.48;83.62;100449.63;4973672;28;20559;-81
2021/05/02 09:56:13;;;;;;;20.45;15.05;;;;;;;10.54;82.26;100450.38;4991317;28;20042;-82
2021/05/02 09:58:40;;;;;;;19.57;14.80;;;;;;;10.53;81.11;100453.06;4972778;28;20125;-81
2021/05/02 10:01:07;;;;;;;19.15;14.13;;;;;;;10.49;82.50;100444.31;4957848;28;20050;-81
2021/05/02 10:03:36;;;;;;;18.88;13.90;;;;;;;10.68;82.90;100444.75;4991834;28;20054;-82
2021/05/02 10:06:08;;;;;;;15.90;12.13;;;;;;;10.61;83.61;100451.97;4973788;28;20077;-82
2021/05/02 10:08:37;;;;;;;17.02;13.65;;;;;;;10.36;81.62;100454.31;4994167;28;20046;-83
2021/05/02 10:11:08;;;;;;;15.30;12.85;;;;;;;10.41;81.55;100454.19;4961524;28;20050;-82
2021/05/02 10:13:35;;;;;;;20.02;14.52;;;;;;;10.63;80.11;100454.56;4961547;28;20062;-82
2021/05/02 10:16:02;;;;;;;18.73;13.15;;;;;;;10.73;81.38;100453.44;4992686;28;20046;-82
2021/05/02 10:18:30;;;;;;;17.33;13.25;;;;;;;10.66;80.85;100455.34;4977903;28;20102;-82
2021/05/02 10:20:56;;;;;;;17.23;13.35;;;;;;;10.64;79.98;100454.53;4984902;28;20051;-82
2021/05/02 10:23:23;;;;;;;16.98;12.80;;;;;;;10.79;79.92;100457.69;4967779;28;20466;-83
2021/05/02 10:25:50;;;;;;;19.45;14.20;;;;;;;10.78;80.50;100459.47;4962645;28;20057;-82
2021/05/02 10:28:22;;;;;;;18.15;14.55;;;;;;;10.69;79.33;100451.78;4990362;28;20040;-82
2021/05/02 10:30:53;;;;;;;18.38;13.82;;;;;;;10.51;78.52;100463.66;4973443;28;20096;-82
2021/05/02 10:33:49;;;;;;;15.10;13.38;;;;;;;10.74;79.09;100452.53;4977214;28;20050;-82
2021/05/02 10:36:21;;;;;;;20.40;14.55;;;;;;;10.83;79.38;100457.56;4951915;28;20059;-81
2021/05/02 10:38:56;;;;;;;16.42;13.23;;;;;;;10.95;80.02;100459.94;4988587;28;20085;-82
2021/05/02 10:41:31;;;;;;;18.60;13.75;;;;;;;10.89;77.56;100454.78;4970960;28;20082;-82
2021/05/02 10:44:03;;;;;;;16.58;12.10;;;;;;;11.06;78.52;100464.06;4972092;28;20046;-82
2021/05/02 10:46:45;;;;;;;18.70;13.55;;;;;;;11.22;77.43;100454.84;4985115;28;20085;-82
2021/05/02 10:49:32;;;;;;;17.75;13.20;;;;;;;11.32;78.40;100458.09;5005920;28;20053;-82
2021/05/02 10:52:27;;;;;;;17.73;11.40;;;;;;;11.34;73.99;100459.78;5003728;28;20046;-82
2021/05/02 10:55:06;;;;;;;17.30;13.10;;;;;;;11.45;77.29;100463.03;5066554;23;20498;-81
2021/05/02 10:57:34;;;;;;;14.85;11.93;;;;;;;11.53;76.79;100457.53;5010867;28;20045;-81
2021/05/02 11:00:08;;;;;;;14.93;11.82;;;;;;;11.55;73.16;100461.00;5022201;28;20038;-81
2021/05/02 11:02:42;;;;;;;14.35;11.52;;;;;;;11.10;76.12;100463.06;5027105;28;20057;-81
2021/05/02 11:05:11;;;;;;;14.88;11.75;;;;;;;11.18;74.90;100467.28;4996150;28;20077;-81
2021/05/02 11:07:44;;;;;;;14.80;11.88;;;;;;;11.17;77.55;100457.59;5011307;28;20044;-81
2021/05/02 11:10:14;;;;;;;19.75;12.43;;;;;;;11.19;74.88;100462.84;5024513;28;20075;-81
2021/05/02 11:12:40;;;;;;;12.10;9.98;;;;;;;11.40;74.31;100459.63;5012058;28;20429;-81
2021/05/02 11:15:24;;;;;;;17.40;11.75;;;;;;;11.56;74.09;100458.31;5028963;28;20102;-82
2021/05/02 11:17:52;;;;;;;16.55;11.93;;;;;;;11.56;71.62;100458.31;5029482;28;20052;-81